Time;durP1;ratioP1;P1;durP2;ratioP2;P2;SDS_P1;SDS_P2;PMS_P1;PMS_P2;Temp;Humidity;BMP_temperature;BMP_pressure;BME280_temperature;BME280_humidity;BME280_pressure;Samples;Min_cycle;Max_cycle;Signal;HPM_P1;HPM_P2
2022/09/20 00:01:42;;;;;;;3.83;3.53;;;9.80;99.90;;;;;;5015348;28;20667;-81
2022/09/20 00:04:10;;;;;;;9.33;4.40;;;9.90;99.90;;;;;;5038231;28;21175;-81
2022/09/20 00:06:36;;;;;;;5.13;4.40;;;9.80;99.90;;;;;;5017721;28;20634;-81
2022/09/20 00:09:04;;;;;;;5.27;4.40;;;9.80;99.90;;;;;;5040774;28;20638;-84
2022/09/20 00:11:33;;;;;;;4.40;4.00;;;9.70;99.90;;;;;;5051861;28;20654;-81
2022/09/20 00:14:04;;;;;;;4.90;3.83;;;10.00;99.90;;;;;;5050414;28;20628;-81
2022/09/20 00:16:33;;;;;;;4.10;3.53;;;10.00;99.90;;;;;;5021065;28;20652;-83
2022/09/20 00:19:02;;;;;;;7.33;4.53;;;9.80;99.90;;;;;;5019282;28;20630;-81
2022/09/20 00:21:31;;;;;;;8.03;4.17;;;9.80;99.90;;;;;;5021706;28;20693;-82
2022/09/20 00:23:58;;;;;;;6.20;4.33;;;10.10;99.90;;;;;;5023553;28;20639;-80
2022/09/20 00:26:26;;;;;;;5.53;4.47;;;9.90;99.90;;;;;;5032158;28;21220;-82
2022/09/20 00:28:52;;;;;;;5.50;5.10;;;10.10;99.90;;;;;;5041137;28;20634;-81
2022/09/20 00:31:20;;;;;;;5.07;4.57;;;9.90;99.90;;;;;;5044046;28;20642;-81
2022/09/20 00:36:32;;;;;;;12.77;5.60;;;10.00;99.90;;;;;;5044486;28;20623;-82
2022/09/20 00:39:00;;;;;;;5.10;4.57;;;9.80;99.90;;;;;;5035431;28;20627;-82
2022/09/20 00:41:28;;;;;;;6.53;4.80;;;9.90;99.90;;;;;;5035008;28;20651;-82
2022/09/20 00:43:55;;;;;;;5.43;5.03;;;10.20;99.90;;;;;;5041521;28;20627;-82
2022/09/20 00:46:29;;;;;;;6.33;4.93;;;10.10;99.90;;;;;;5020391;28;20635;-82
2022/09/20 00:49:03;;;;;;;6.13;4.70;;;10.00;99.90;;;;;;5021120;28;20622;-82
2022/09/20 00:51:34;;;;;;;5.87;4.67;;;10.10;99.90;;;;;;5032918;28;20654;-82
2022/09/20 00:54:05;;;;;;;6.73;4.93;;;10.00;99.90;;;;;;5022506;28;20627;-82
2022/09/20 00:56:34;;;;;;;5.97;5.10;;;10.20;99.90;;;;;;5022607;28;20622;-82
2022/09/20 00:59:06;;;;;;;5.13;4.73;;;9.90;99.90;;;;;;5017057;28;20672;-82
2022/09/20 01:01:34;;;;;;;5.07;4.57;;;10.10;99.90;;;;;;5038598;28;20650;-81
2022/09/20 01:04:02;;;;;;;6.07;4.97;;;10.20;99.90;;;;;;5014890;28;20623;-82
2022/09/20 01:06:30;;;;;;;6.23;5.40;;;10.20;99.90;;;;;;5020891;28;20631;-82
2022/09/20 01:09:01;;;;;;;5.63;5.13;;;10.30;99.90;;;;;;5028856;28;20996;-83
2022/09/20 01:11:29;;;;;;;5.70;5.10;;;10.30;99.90;;;;;;5021072;28;20657;-82
2022/09/20 01:13:56;;;;;;;6.33;4.77;;;10.00;99.90;;;;;;5034250;28;20990;-82
2022/09/20 01:16:24;;;;;;;6.80;5.13;;;9.70;99.90;;;;;;5050605;28;20691;-82
2022/09/20 01:18:55;;;;;;;5.23;4.73;;;10.00;99.90;;;;;;5028723;28;20666;-82
2022/09/20 01:21:22;;;;;;;5.17;4.70;;;10.20;99.90;;;;;;5027013;28;21233;-82
2022/09/20 01:23:58;;;;;;;5.17;4.63;;;9.80;99.90;;;;;;5044637;28;20635;-82
2022/09/20 01:27:04;;;;;;;5.27;4.77;;;9.80;99.90;;;;;;5013028;28;20648;-81
2022/09/20 01:29:44;;;;;;;5.00;4.50;;;10.10;99.90;;;;;;5046385;28;20631;-82
2022/09/20 01:32:16;;;;;;;4.73;4.33;;;9.80;99.90;;;;;;5020595;28;20663;-82
2022/09/20 01:34:46;;;;;;;6.53;5.43;;;10.40;99.90;;;;;;5031124;28;20995;-83
2022/09/20 01:37:19;;;;;;;5.07;4.60;;;10.30;99.90;;;;;;5032733;28;20674;-83
2022/09/20 01:39:54;;;;;;;7.53;5.00;;;10.30;99.90;;;;;;5014589;28;20623;-82
2022/09/20 01:42:27;;;;;;;4.70;4.30;;;10.30;99.90;;;;;;5050682;28;20665;-82
2022/09/20 01:45:01;;;;;;;4.60;4.20;;;10.40;99.90;;;;;;5022953;28;20619;-82
2022/09/20 01:47:36;;;;;;;6.00;4.20;;;10.30;99.90;;;;;;5056254;28;20628;-81
2022/09/20 01:50:13;;;;;;;4.57;4.17;;;10.50;99.90;;;;;;5054987;28;20622;-84
2022/09/20 01:53:16;;;;;;;9.83;4.67;;;10.20;99.90;;;;;;5025865;28;20657;-83
2022/09/20 01:56:10;;;;;;;9.17;5.17;;;10.20;99.90;;;;;;5020680;28;20626;-82
2022/09/20 01:59:03;;;;;;;6.13;4.90;;;10.10;99.90;;;;;;5026135;28;20667;-81
2022/09/20 02:01:59;;;;;;;8.83;4.83;;;10.30;99.90;;;;;;5052157;28;20665;-81
2022/09/20 02:04:57;;;;;;;4.63;4.23;;;10.30;99.90;;;;;;5048774;28;20641;-83
2022/09/20 02:07:53;;;;;;;4.53;4.13;;;10.10;99.90;;;;;;5080095;28;20631;-80
2022/09/20 02:10:47;;;;;;;4.43;4.03;;;10.30;99.90;;;;;;5045496;28;20632;-80
2022/09/20 02:13:28;;;;;;;5.10;4.60;;;10.00;99.90;;;;;;5025605;28;20636;-83
2022/09/20 02:16:29;;;;;;;5.50;4.60;;;9.80;99.90;;;;;;5026307;28;20680;-83
2022/09/20 02:19:15;;;;;;;7.33;4.40;;;10.40;99.90;;;;;;5078874;28;20643;-83
2022/09/20 02:21:49;;;;;;;4.93;4.43;;;10.20;99.90;;;;;;5042535;28;21252;-83
2022/09/20 02:24:23;;;;;;;4.90;4.37;;;10.30;99.90;;;;;;5072354;28;20610;-83
2022/09/20 02:27:02;;;;;;;4.80;3.83;;;10.00;99.90;;;;;;5009652;28;21177;-83
2022/09/20 02:29:43;;;;;;;4.77;4.23;;;10.20;99.90;;;;;;5040217;28;20619;-84
2022/09/20 02:32:36;;;;;;;5.07;4.60;;;10.20;99.90;;;;;;5034799;28;20687;-84
2022/09/20 02:35:34;;;;;;;5.70;3.90;;;10.00;99.90;;;;;;5048020;28;20627;-83
2022/09/20 02:38:11;;;;;;;6.73;4.67;;;10.30;99.90;;;;;;5044826;28;20660;-82
2022/09/20 02:41:04;;;;;;;5.07;4.10;;;10.30;99.90;;;;;;5083858;28;20667;-82
2022/09/20 02:43:35;;;;;;;5.27;4.77;;;10.40;99.90;;;;;;5054588;28;20619;-81
2022/09/20 02:46:10;;;;;;;6.07;4.57;;;10.30;99.90;;;;;;5059344;28;20989;-81
2022/09/20 02:48:45;;;;;;;4.23;3.80;;;10.10;99.90;;;;;;5083714;28;20606;-81
2022/09/20 02:51:21;;;;;;;5.27;4.00;;;10.40;99.90;;;;;;5065740;28;20650;-81
2022/09/20 02:54:01;;;;;;;7.03;4.00;;;10.10;99.90;;;;;;5054519;28;20607;-81
2022/09/20 02:56:34;;;;;;;4.93;4.00;;;10.30;99.90;;;;;;5046376;28;20607;-81
2022/09/20 02:59:07;;;;;;;5.23;4.20;;;10.10;99.90;;;;;;5019713;28;20668;-81
2022/09/20 03:01:44;;;;;;;4.40;3.13;;;10.20;99.90;;;;;;5057450;28;20659;-81
2022/09/20 03:04:23;;;;;;;4.57;3.57;;;10.40;99.90;;;;;;5046691;28;20971;-81
2022/09/20 03:06:57;;;;;;;4.73;3.50;;;10.20;99.90;;;;;;5040449;28;21201;-81
2022/09/20 03:09:32;;;;;;;5.20;3.83;;;10.00;99.90;;;;;;5053348;28;20618;-83
2022/09/20 03:12:10;;;;;;;3.40;3.10;;;9.70;99.90;;;;;;5061577;28;20651;-83
2022/09/20 03:14:40;;;;;;;5.40;3.10;;;9.90;99.90;;;;;;5025764;28;20673;-81
2022/09/20 03:17:19;;;;;;;5.90;3.00;;;10.20;99.90;;;;;;5073918;28;20630;-81
2022/09/20 03:20:04;;;;;;;3.40;3.10;;;10.10;99.90;;;;;;5038460;28;20666;-81
2022/09/20 03:22:41;;;;;;;8.20;3.50;;;10.10;99.90;;;;;;5053188;28;20642;-81
2022/09/20 03:25:30;;;;;;;6.00;3.20;;;10.10;99.90;;;;;;5022792;28;20630;-82
2022/09/20 03:28:08;;;;;;;5.97;3.57;;;10.20;99.90;;;;;;5061833;28;20657;-81
2022/09/20 03:30:50;;;;;;;5.50;3.60;;;10.10;99.90;;;;;;5039402;28;20636;-81
2022/09/20 03:33:25;;;;;;;5.20;3.60;;;10.00;99.90;;;;;;5064467;28;20615;-82
2022/09/20 03:36:03;;;;;;;6.40;2.80;;;9.50;99.90;;;;;;5059708;28;21420;-82
2022/09/20 03:38:46;;;;;;;5.10;2.80;;;9.90;99.90;;;;;;5057389;28;20667;-82
2022/09/20 03:41:35;;;;;;;3.07;2.70;;;10.10;99.90;;;;;;5024062;28;20654;-81
2022/09/20 03:44:24;;;;;;;7.17;3.97;;;10.00;99.90;;;;;;5030589;28;20611;-81
2022/09/20 03:47:02;;;;;;;7.33;3.50;;;9.90;99.90;;;;;;5024911;28;20977;-82
2022/09/20 03:50:05;;;;;;;5.70;3.77;;;9.90;99.90;;;;;;5068789;28;20632;-82
2022/09/20 03:52:51;;;;;;;8.30;3.60;;;9.90;99.90;;;;;;5035560;28;21225;-82
2022/09/20 03:55:46;;;;;;;3.83;3.43;;;10.10;99.90;;;;;;5061017;28;20993;-81
2022/09/20 03:58:37;;;;;;;3.60;3.07;;;10.00;99.90;;;;;;5067393;28;20655;-81
2022/09/20 04:01:16;;;;;;;3.50;3.20;;;9.80;99.90;;;;;;5074320;28;20647;-81
2022/09/20 04:03:53;;;;;;;6.37;3.47;;;9.80;99.90;;;;;;5048298;28;20619;-81
2022/09/20 04:06:45;;;;;;;6.60;3.20;;;9.90;99.90;;;;;;5047704;28;20618;-81
2022/09/20 04:09:48;;;;;;;5.63;3.40;;;9.80;99.90;;;;;;5061512;28;20977;-81
2022/09/20 04:12:27;;;;;;;6.23;2.87;;;9.90;99.90;;;;;;5023026;28;20651;-84
2022/09/20 04:15:02;;;;;;;7.53;3.07;;;9.90;99.90;;;;;;5069946;28;20630;-81
2022/09/20 04:17:42;;;;;;;7.93;4.47;;;9.90;99.90;;;;;;5048431;28;20680;-81
2022/09/20 04:20:16;;;;;;;7.67;3.17;;;10.00;99.90;;;;;;5006845;28;20656;-81
2022/09/20 04:22:46;;;;;;;5.60;3.30;;;10.20;99.90;;;;;;5024879;28;20681;-81
2022/09/20 04:25:16;;;;;;;4.20;2.60;;;9.90;99.90;;;;;;5060862;28;20997;-81
2022/09/20 04:27:49;;;;;;;8.03;3.40;;;9.90;99.90;;;;;;5048244;28;20622;-82
2022/09/20 04:30:19;;;;;;;4.53;3.20;;;9.70;99.90;;;;;;5011558;28;20627;-82
2022/09/20 04:32:53;;;;;;;5.30;3.17;;;10.10;99.90;;;;;;5047276;28;20657;-82
2022/09/20 04:38:19;;;;;;;3.47;3.17;;;10.00;99.90;;;;;;5014548;28;20756;-81
2022/09/20 04:41:15;;;;;;;6.13;3.00;;;10.00;99.90;;;;;;5005297;28;20643;-81
2022/09/20 04:44:23;;;;;;;6.10;2.97;;;9.90;99.90;;;;;;5007545;28;20757;-81
2022/09/20 04:47:17;;;;;;;7.30;3.10;;;10.10;99.90;;;;;;5012196;28;21272;-81
2022/09/20 04:50:19;;;;;;;4.53;3.10;;;9.90;99.90;;;;;;5006485;28;21093;-81
2022/09/20 04:53:21;;;;;;;8.53;3.93;;;10.30;99.90;;;;;;5007412;28;20657;-81
2022/09/20 04:55:55;;;;;;;7.67;3.40;;;10.00;99.90;;;;;;4990363;28;21185;-81
2022/09/20 04:59:03;;;;;;;3.90;3.40;;;9.50;99.90;;;;;;5039054;28;21082;-81
2022/09/20 05:02:02;;;;;;;4.00;3.20;;;10.00;99.90;;;;;;5073712;28;20650;-81
2022/09/20 05:05:20;;;;;;;6.93;3.67;;;10.00;99.90;;;;;;5054721;28;20653;-81
2022/09/20 05:08:35;;;;;;;7.80;4.00;;;10.20;99.90;;;;;;4984035;28;20613;-84
2022/09/20 05:11:29;;;;;;;5.93;4.00;;;9.80;99.90;;;;;;5037563;28;21181;-80
2022/09/20 05:14:15;;;;;;;5.70;4.10;;;10.10;99.90;;;;;;5042740;28;20622;-81
2022/09/20 05:16:56;;;;;;;6.33;3.60;;;9.90;99.90;;;;;;5058852;28;21198;-81
2022/09/20 05:19:31;;;;;;;5.30;3.40;;;10.00;99.90;;;;;;5066989;28;20659;-80
2022/09/20 05:22:23;;;;;;;5.93;4.00;;;9.90;99.90;;;;;;5041740;28;20708;-80
2022/09/20 05:25:09;;;;;;;5.77;4.03;;;9.90;99.90;;;;;;5014411;28;20632;-81
2022/09/20 05:27:43;;;;;;;4.90;3.50;;;10.00;99.90;;;;;;5076069;28;21189;-81
2022/09/20 05:30:21;;;;;;;5.40;4.00;;;10.10;99.90;;;;;;5038386;28;20649;-81
2022/09/20 05:32:57;;;;;;;4.43;4.00;;;10.00;99.90;;;;;;5062568;28;20682;-83
2022/09/20 05:35:30;;;;;;;9.70;3.53;;;10.20;99.90;;;;;;5049052;28;20683;-81
2022/09/20 05:38:03;;;;;;;4.50;3.43;;;10.20;99.90;;;;;;5070777;28;20973;-80
2022/09/20 05:40:38;;;;;;;7.47;3.80;;;9.90;99.90;;;;;;5073656;28;20615;-80
2022/09/20 05:43:11;;;;;;;5.13;3.40;;;10.20;99.90;;;;;;5084319;28;21044;-80
2022/09/20 05:46:02;;;;;;;3.57;3.27;;;10.00;99.90;;;;;;5056268;28;20680;-79
2022/09/20 05:48:38;;;;;;;6.70;4.00;;;10.00;99.90;;;;;;5083961;28;20610;-82
2022/09/20 05:51:16;;;;;;;5.90;3.30;;;9.80;99.90;;;;;;5019397;28;20646;-79
2022/09/20 05:54:12;;;;;;;5.10;3.80;;;9.80;99.90;;;;;;5048058;28;20622;-81
2022/09/20 05:56:49;;;;;;;7.70;4.30;;;10.10;99.90;;;;;;5011256;27;20639;-84
2022/09/20 05:59:28;;;;;;;8.63;4.30;;;9.90;99.90;;;;;;5037248;28;20670;-83
2022/09/20 06:02:20;;;;;;;4.30;3.97;;;9.90;99.90;;;;;;5036467;28;20691;-82
2022/09/20 06:04:57;;;;;;;7.63;4.13;;;9.80;99.90;;;;;;5032353;28;21062;-81
2022/09/20 06:07:32;;;;;;;6.03;4.67;;;9.70;99.90;;;;;;5045261;28;20634;-81
2022/09/20 06:10:30;;;;;;;5.77;4.57;;;10.20;99.90;;;;;;5021335;28;20618;-81
2022/09/20 06:13:08;;;;;;;11.30;5.53;;;10.20;99.90;;;;;;5026676;28;21409;-81
2022/09/20 06:15:43;;;;;;;5.67;5.07;;;10.30;99.90;;;;;;5031249;28;20632;-81
2022/09/20 06:18:24;;;;;;;8.77;4.13;;;10.10;99.90;;;;;;5019213;28;20647;-83
2022/09/20 06:21:03;;;;;;;7.30;4.47;;;10.10;99.90;;;;;;5013731;28;20635;-82
2022/09/20 06:23:31;;;;;;;6.63;5.00;;;10.30;99.90;;;;;;5018210;28;20711;-81
2022/09/20 06:26:02;;;;;;;10.10;5.00;;;10.10;99.90;;;;;;5028826;28;20619;-83
2022/09/20 06:28:33;;;;;;;10.00;4.40;;;10.50;99.90;;;;;;5068905;28;20660;-81
2022/09/20 06:31:00;;;;;;;4.90;4.40;;;10.40;99.90;;;;;;5079607;28;20623;-82
2022/09/20 06:33:29;;;;;;;6.37;4.00;;;10.60;99.90;;;;;;5033409;28;20640;-81
2022/09/20 06:41:25;;;;;;;5.43;3.80;;;10.50;99.90;;;;;;5087399;28;21173;-82
2022/09/20 06:41:43;;;;;;;4.20;3.90;;;10.50;99.90;;;;;;5042212;28;20744;-81
2022/09/20 06:44:10;;;;;;;3.97;3.30;;;10.50;99.90;;;;;;5039769;28;20623;-81
2022/09/20 06:46:37;;;;;;;5.20;3.63;;;10.70;99.90;;;;;;5065885;28;20646;-81
2022/09/20 06:49:08;;;;;;;5.43;3.40;;;11.00;99.90;;;;;;5077915;28;20626;-81
2022/09/20 06:51:36;;;;;;;5.70;3.80;;;10.30;99.90;;;;;;5031183;28;20694;-81
2022/09/20 06:54:07;;;;;;;4.63;4.00;;;10.90;99.90;;;;;;5074560;28;20643;-81
2022/09/20 06:56:37;;;;;;;5.03;3.30;;;10.90;99.90;;;;;;5021967;28;20906;-82
2022/09/20 06:59:06;;;;;;;5.47;3.50;;;11.10;99.90;;;;;;5023484;28;20716;-81
2022/09/20 07:01:33;;;;;;;7.03;4.07;;;10.90;99.90;;;;;;5070350;28;20683;-82
2022/09/20 07:04:01;;;;;;;3.70;3.40;;;10.60;99.90;;;;;;5070744;28;21164;-81
2022/09/20 07:06:29;;;;;;;6.80;4.00;;;11.10;99.90;;;;;;5060870;28;20647;-82
2022/09/20 07:08:56;;;;;;;6.53;4.20;;;10.60;99.90;;;;;;5037749;28;20623;-81
2022/09/20 07:11:23;;;;;;;4.20;3.80;;;10.60;99.90;;;;;;5049385;28;20646;-81
2022/09/20 07:13:51;;;;;;;7.07;3.43;;;11.10;99.90;;;;;;5042946;28;21010;-81
2022/09/20 07:16:18;;;;;;;5.20;3.37;;;11.20;99.90;;;;;;5059192;28;20655;-81
2022/09/20 07:18:46;;;;;;;6.67;4.17;;;11.40;99.90;;;;;;5037362;28;20653;-81
2022/09/20 07:21:14;;;;;;;4.07;3.40;;;11.30;99.90;;;;;;5086468;28;21184;-81
2022/09/20 07:23:44;;;;;;;4.53;3.57;;;11.00;99.90;;;;;;5074332;28;20642;-81
2022/09/20 07:26:18;;;;;;;7.03;4.00;;;11.30;99.90;;;;;;5052844;28;20611;-82
2022/09/20 07:28:45;;;;;;;4.80;3.47;;;11.40;99.90;;;;;;5043588;28;20663;-81
2022/09/20 07:31:12;;;;;;;4.17;3.77;;;11.50;99.90;;;;;;5062485;28;20700;-82
2022/09/20 07:33:38;;;;;;;7.07;4.07;;;11.30;99.90;;;;;;5023426;28;20631;-81
2022/09/20 07:36:06;;;;;;;9.40;3.80;;;11.80;99.90;;;;;;5063518;28;20711;-82
2022/09/20 07:38:32;;;;;;;7.60;4.07;;;11.80;99.90;;;;;;5031831;28;20635;-80
2022/09/20 07:41:02;;;;;;;7.47;3.70;;;12.00;99.90;;;;;;5031052;28;20679;-80
2022/09/20 07:43:29;;;;;;;6.70;4.47;;;11.60;99.90;;;;;;5006090;28;20704;-80
2022/09/20 07:45:58;;;;;;;7.03;5.27;;;12.20;99.90;;;;;;5049928;28;21321;-79
2022/09/20 07:48:26;;;;;;;8.90;4.23;;;12.20;99.90;;;;;;5045728;28;20677;-80
2022/09/20 07:50:55;;;;;;;10.10;4.60;;;11.70;99.90;;;;;;5017003;28;20615;-80
2022/09/20 07:53:22;;;;;;;6.80;4.37;;;12.20;99.90;;;;;;5025425;28;21127;-80
2022/09/20 07:56:05;;;;;;;6.90;3.53;;;12.30;99.90;;;;;;5037437;28;20630;-80
2022/09/20 07:58:33;;;;;;;6.43;3.57;;;12.60;99.90;;;;;;5044460;28;20627;-80
2022/09/20 08:01:02;;;;;;;12.47;3.87;;;12.60;99.90;;;;;;5052808;28;20772;-80
2022/09/20 08:03:30;;;;;;;11.30;3.70;;;12.60;99.90;;;;;;5047228;28;20643;-79
2022/09/20 08:05:59;;;;;;;6.67;3.27;;;13.00;99.90;;;;;;5020006;28;20670;-80
2022/09/20 08:08:27;;;;;;;6.73;3.73;;;12.70;99.90;;;;;;5027002;28;20634;-80
2022/09/20 08:11:01;;;;;;;9.97;3.20;;;13.00;99.90;;;;;;5031123;28;21158;-80
2022/09/20 08:13:29;;;;;;;5.90;2.70;;;13.30;99.90;;;;;;5027967;28;20671;-81
2022/09/20 08:16:02;;;;;;;3.80;2.27;;;13.40;99.90;;;;;;5032964;28;20717;-81
2022/09/20 08:18:28;;;;;;;4.83;2.23;;;13.40;99.90;;;;;;5024175;28;20664;-81
2022/09/20 08:20:55;;;;;;;5.10;2.20;;;13.60;99.90;;;;;;5014963;28;20881;-81
2022/09/20 08:23:22;;;;;;;5.50;1.73;;;13.90;99.90;;;;;;5030410;28;20631;-80
2022/09/20 08:25:49;;;;;;;5.50;1.80;;;13.90;99.90;;;;;;5023330;28;20670;-81
2022/09/20 08:28:15;;;;;;;4.73;2.20;;;14.00;99.90;;;;;;5033125;28;21017;-80
2022/09/20 08:30:43;;;;;;;10.27;2.30;;;14.10;99.90;;;;;;5018545;28;20643;-81
2022/09/20 08:33:12;;;;;;;6.40;2.67;;;14.10;99.90;;;;;;5028464;28;20634;-81
2022/09/20 08:35:38;;;;;;;8.13;2.77;;;14.20;99.90;;;;;;5048769;28;20635;-80
2022/09/20 08:38:06;;;;;;;6.50;2.37;;;14.20;99.90;;;;;;5023587;28;20639;-81
2022/09/20 08:40:34;;;;;;;4.43;2.23;;;14.20;99.90;;;;;;5051771;28;20768;-81
2022/09/20 08:43:01;;;;;;;5.30;2.13;;;14.20;99.90;;;;;;5009491;28;20701;-81
2022/09/20 08:45:28;;;;;;;9.00;2.60;;;14.20;99.90;;;;;;5025372;28;20647;-81
2022/09/20 08:48:00;;;;;;;5.30;2.40;;;14.20;99.90;;;;;;5037910;28;20742;-81
2022/09/20 08:50:27;;;;;;;3.40;1.87;;;14.30;99.90;;;;;;5021220;28;20628;-80
2022/09/20 08:52:59;;;;;;;5.80;2.37;;;14.40;99.90;;;;;;5063660;28;20639;-81
2022/09/20 08:55:31;;;;;;;12.40;2.37;;;14.40;99.90;;;;;;5045292;28;20638;-81
2022/09/20 08:58:01;;;;;;;5.57;1.73;;;14.50;99.90;;;;;;5059000;28;20647;-81
2022/09/20 09:00:31;;;;;;;6.90;1.70;;;14.40;99.90;;;;;;5029192;28;20731;-80
2022/09/20 09:03:05;;;;;;;4.57;1.80;;;14.40;99.90;;;;;;5040851;28;20669;-80
2022/09/20 09:05:35;;;;;;;5.93;2.17;;;14.50;99.90;;;;;;5029254;28;20647;-81
2022/09/20 09:08:07;;;;;;;7.63;2.53;;;14.50;99.90;;;;;;5015190;28;20657;-80
2022/09/20 09:10:37;;;;;;;6.50;1.83;;;14.70;99.90;;;;;;5047951;28;20624;-80
2022/09/20 09:13:06;;;;;;;5.60;1.90;;;14.80;99.90;;;;;;5091554;28;20622;-80
2022/09/20 09:15:35;;;;;;;7.30;1.43;;;15.00;99.90;;;;;;5060204;28;20624;-80
2022/09/20 09:18:05;;;;;;;6.90;1.37;;;15.10;99.90;;;;;;5073545;28;20961;-80
2022/09/20 09:20:41;;;;;;;4.27;1.60;;;15.10;99.90;;;;;;5027587;28;21204;-80
2022/09/20 09:23:13;;;;;;;4.47;1.80;;;15.10;99.90;;;;;;5009560;28;20734;-80
2022/09/20 09:25:40;;;;;;;5.77;1.87;;;15.10;99.90;;;;;;5068119;28;20631;-80
2022/09/20 09:28:14;;;;;;;11.53;2.10;;;15.10;99.90;;;;;;5049571;28;20651;-80
2022/09/20 09:30:42;;;;;;;6.53;1.57;;;15.10;99.90;;;;;;5038652;28;20612;-81
2022/09/20 09:33:22;;;;;;;6.03;1.30;;;15.10;99.90;;;;;;5037940;28;20679;-80
2022/09/20 09:35:55;;;;;;;6.13;1.80;;;15.00;99.90;;;;;;5027790;28;20638;-80
2022/09/20 09:38:24;;;;;;;4.27;1.60;;;15.00;99.90;;;;;;5041034;28;20662;-80
2022/09/20 09:40:53;;;;;;;4.93;2.90;;;14.90;99.90;;;;;;5042321;28;20662;-80
2022/09/20 09:43:25;;;;;;;3.50;1.50;;;14.90;99.90;;;;;;5028276;28;20689;-80
2022/09/20 09:45:53;;;;;;;6.10;1.93;;;14.80;99.90;;;;;;5050030;28;20667;-80
2022/09/20 09:48:25;;;;;;;11.77;2.20;;;14.80;99.90;;;;;;5027556;28;20723;-80
2022/09/20 09:51:09;;;;;;;4.23;1.30;;;14.80;99.90;;;;;;5038271;28;21232;-81
2022/09/20 09:53:37;;;;;;;6.80;2.27;;;14.80;99.90;;;;;;5033302;28;21260;-80
2022/09/20 09:56:25;;;;;;;3.37;1.50;;;14.90;99.90;;;;;;5022424;28;21658;-80
2022/09/20 09:59:13;;;;;;;7.03;2.13;;;15.00;99.90;;;;;;5015109;28;21016;-80
2022/09/20 10:01:55;;;;;;;4.30;1.97;;;15.00;99.90;;;;;;5013031;28;20667;-81
2022/09/20 10:04:31;;;;;;;4.60;2.47;;;15.20;99.90;;;;;;5021457;28;21181;-79
2022/09/20 10:07:05;;;;;;;6.47;1.50;;;15.30;99.90;;;;;;5034340;28;20747;-81
2022/09/20 10:09:51;;;;;;;5.10;2.10;;;15.40;99.90;;;;;;5050692;28;20621;-80
2022/09/20 10:12:35;;;;;;;5.40;1.30;;;15.50;99.90;;;;;;5020610;28;20624;-80
2022/09/20 10:15:25;;;;;;;8.03;1.40;;;15.70;99.90;;;;;;5018659;28;20665;-80
2022/09/20 10:18:15;;;;;;;3.10;1.47;;;15.80;99.90;;;;;;5030504;28;20647;-80
2022/09/20 10:20:54;;;;;;;4.90;1.73;;;15.80;99.70;;;;;;5037615;28;20794;-80
2022/09/20 10:23:36;;;;;;;3.70;1.60;;;15.90;99.90;;;;;;5031152;28;20639;-81
2022/09/20 10:26:12;;;;;;;4.30;1.20;;;16.10;99.90;;;;;;5031082;28;20719;-81
2022/09/20 10:28:49;;;;;;;5.83;1.53;;;16.20;99.90;;;;;;5021276;28;20652;-80
2022/09/20 10:31:34;;;;;;;4.57;1.67;;;16.30;97.80;;;;;;5033841;28;20631;-81
2022/09/20 10:34:19;;;;;;;3.00;1.17;;;16.20;98.00;;;;;;5037808;28;21207;-81
2022/09/20 10:36:52;;;;;;;7.40;1.30;;;16.30;99.10;;;;;;5012808;28;20655;-80
2022/09/20 10:39:25;;;;;;;4.57;1.50;;;16.40;99.40;;;;;;5020691;28;20623;-80
2022/09/20 10:45:02;;;;;;;3.80;1.30;;;16.60;96.80;;;;;;5007387;28;20754;-80
2022/09/20 10:47:36;;;;;;;4.30;1.80;;;16.70;95.80;;;;;;5030749;28;20616;-80
2022/09/20 10:50:17;;;;;;;7.27;1.30;;;16.50;95.60;;;;;;5031621;28;20653;-82
2022/09/20 10:53:08;;;;;;;3.57;1.20;;;16.40;96.20;;;;;;5035463;28;20634;-80
2022/09/20 10:55:46;;;;;;;2.77;1.30;;;16.30;98.10;;;;;;5019203;28;20771;-81
2022/09/20 10:58:53;;;;;;;1.80;1.00;;;16.20;99.90;;;;;;5044403;28;21129;-81
2022/09/20 11:01:28;;;;;;;5.07;1.43;;;16.30;97.80;;;;;;5018461;28;20677;-80
2022/09/20 11:04:17;;;;;;;6.57;1.97;;;16.20;98.10;;;;;;5009044;28;21039;-80
2022/09/20 11:06:51;;;;;;;5.77;1.70;;;16.30;97.60;;;;;;5045952;28;20634;-81
2022/09/20 11:09:23;;;;;;;6.10;1.20;;;16.30;97.80;;;;;;5021738;28;20634;-81
2022/09/20 11:11:57;;;;;;;5.00;2.13;;;16.60;98.60;;;;;;5025261;28;21608;-82
2022/09/20 11:14:33;;;;;;;2.03;1.20;;;17.20;96.00;;;;;;5019886;28;20640;-81
2022/09/20 11:17:07;;;;;;;3.90;1.53;;;17.90;97.00;;;;;;5022501;28;20628;-81
2022/09/20 11:19:40;;;;;;;5.47;1.20;;;18.60;89.90;;;;;;5047717;28;21103;-81
2022/09/20 11:22:12;;;;;;;6.20;1.33;;;19.00;86.70;;;;;;5015784;28;20678;-81
2022/09/20 11:24:45;;;;;;;5.40;1.50;;;19.30;73.90;;;;;;5019483;28;20636;-82
2022/09/20 11:27:17;;;;;;;3.87;1.53;;;19.30;72.60;;;;;;5030856;28;20646;-81
2022/09/20 11:29:49;;;;;;;3.13;1.23;;;19.30;73.90;;;;;;5024339;28;20625;-80
2022/09/20 11:32:24;;;;;;;3.77;1.20;;;19.40;77.30;;;;;;5019937;28;20668;-81
2022/09/20 11:34:54;;;;;;;6.50;1.60;;;19.40;75.30;;;;;;5031010;28;20635;-80
2022/09/20 11:37:23;;;;;;;3.50;1.40;;;19.30;70.90;;;;;;5052884;28;21052;-79
2022/09/20 11:39:54;;;;;;;4.37;2.23;;;19.00;71.00;;;;;;5025299;28;20595;-81
2022/09/20 11:42:25;;;;;;;4.03;1.50;;;18.70;71.90;;;;;;5035986;28;20664;-81
2022/09/20 11:44:53;;;;;;;5.57;1.23;;;18.70;75.10;;;;;;5041295;28;20615;-81
2022/09/20 11:47:25;;;;;;;2.87;1.53;;;18.50;73.50;;;;;;5030229;28;20643;-80
2022/09/20 11:50:10;;;;;;;3.00;1.10;;;18.30;74.20;;;;;;5009993;28;20627;-80
2022/09/20 11:52:51;;;;;;;2.57;1.10;;;18.50;77.50;;;;;;5024859;28;20651;-81
2022/09/20 11:55:42;;;;;;;2.20;1.17;;;19.10;75.90;;;;;;5039505;28;20699;-87
2022/09/20 11:58:15;;;;;;;2.70;1.83;;;20.20;79.30;;;;;;5069359;28;20718;-88
2022/09/20 12:00:46;;;;;;;4.20;1.20;;;20.00;68.00;;;;;;5036221;28;20665;-90
2022/09/20 12:03:28;;;;;;;4.47;1.10;;;20.00;66.10;;;;;;5042869;28;20651;-92
2022/09/20 12:05:57;;;;;;;4.70;1.40;;;21.20;63.00;;;;;;5010759;28;20695;-92
2022/09/20 12:08:28;;;;;;;3.10;1.73;;;21.00;59.50;;;;;;5042542;28;20631;-93
2022/09/20 12:11:07;;;;;;;2.17;1.20;;;19.90;61.40;;;;;;5055125;28;20599;-92
2022/09/20 12:14:00;;;;;;;4.40;1.50;;;20.80;62.40;;;;;;5033865;28;20651;-96
2022/09/20 12:17:28;;;;;;;2.87;1.87;;;22.30;56.30;;;;;;5031900;27;20636;-96
2022/09/20 12:19:55;;;;;;;2.70;1.10;;;22.80;54.50;;;;;;5033081;28;20619;-92
2022/09/20 12:22:29;;;;;;;2.13;1.23;;;21.40;55.20;;;;;;5047805;28;20647;-90
2022/09/20 12:25:41;;;;;;;1.90;1.00;;;21.60;56.60;;;;;;5019081;28;20616;-92
2022/09/20 12:28:16;;;;;;;6.77;1.50;;;21.40;55.40;;;;;;5027166;28;20646;-91
2022/09/20 12:31:32;;;;;;;3.23;1.70;;;22.50;54.10;;;;;;5015933;28;20618;-92
2022/09/20 12:34:01;;;;;;;3.43;1.43;;;23.30;52.30;;;;;;5054530;28;20762;-92
2022/09/20 12:36:29;;;;;;;2.23;1.17;;;23.90;51.80;;;;;;5016169;28;21263;-93
2022/09/20 12:39:04;;;;;;;3.63;1.27;;;24.10;50.30;;;;;;5037324;28;20619;-92
2022/09/20 12:41:49;;;;;;;4.40;1.43;;;24.00;49.90;;;;;;5023522;28;20684;-92
2022/09/20 12:44:38;;;;;;;2.53;1.50;;;24.40;49.00;;;;;;5032495;28;20687;-92
2022/09/20 12:47:15;;;;;;;4.90;2.10;;;25.10;46.60;;;;;;5012288;28;21158;-89
2022/09/20 12:52:55;;;;;;;2.10;1.10;;;23.20;48.50;;;;;;5018413;28;20692;-95
2022/09/20 13:01:32;;;;;;;6.67;1.40;;;24.20;47.00;;;;;;5468028;22;20690;-96
2022/09/20 13:04:37;;;;;;;1.57;1.10;;;24.30;46.00;;;;;;5053997;28;20619;-94
2022/09/20 13:07:43;;;;;;;5.53;1.70;;;23.20;46.10;;;;;;5042644;28;20614;-93
2022/09/20 13:10:29;;;;;;;3.37;1.53;;;21.70;47.00;;;;;;5043340;28;20590;-93
2022/09/20 13:13:00;;;;;;;3.70;1.70;;;21.40;47.70;;;;;;5050131;28;20689;-89
2022/09/20 13:15:27;;;;;;;2.03;1.37;;;20.80;49.30;;;;;;5046204;28;20631;-95
2022/09/20 13:18:04;;;;;;;9.20;2.13;;;20.50;50.80;;;;;;5040925;28;20626;-96
2022/09/20 13:20:43;;;;;;;3.03;1.43;;;20.90;50.20;;;;;;5036604;28;21153;-96
2022/09/20 13:23:23;;;;;;;3.50;1.47;;;20.80;47.90;;;;;;5033882;28;20632;-95
2022/09/20 13:26:01;;;;;;;1.83;1.10;;;20.30;50.40;;;;;;5039252;28;20614;-94
2022/09/20 13:28:34;;;;;;;4.20;1.30;;;20.60;50.10;;;;;;5044617;28;21210;-92
2022/09/20 13:31:23;;;;;;;2.00;1.37;;;20.80;50.50;;;;;;5037005;28;20765;-94
2022/09/20 13:33:51;;;;;;;5.50;1.83;;;22.30;49.80;;;;;;5028706;28;20730;-94
2022/09/20 13:36:26;;;;;;;1.67;1.40;;;23.10;49.40;;;;;;5033575;28;21149;-94
2022/09/20 13:38:56;;;;;;;5.30;1.37;;;24.70;46.80;;;;;;5029915;28;21238;-94
2022/09/20 13:41:31;;;;;;;4.53;4.17;;;25.90;44.80;;;;;;5039665;28;20658;-94
2022/09/20 13:44:00;;;;;;;6.17;5.67;;;24.40;43.60;;;;;;5039082;28;20701;-94
2022/09/20 13:46:30;;;;;;;2.90;1.63;;;22.90;45.30;;;;;;5037432;28;20622;-93
2022/09/20 13:49:19;;;;;;;3.20;1.20;;;22.80;45.70;;;;;;5035577;28;20626;-93
2022/09/20 13:52:00;;;;;;;3.83;1.57;;;23.00;46.40;;;;;;5027563;28;20723;-94
2022/09/20 13:54:29;;;;;;;3.33;1.53;;;22.40;47.60;;;;;;5035191;28;20631;-94
2022/09/20 13:56:59;;;;;;;3.67;1.40;;;21.50;50.10;;;;;;5037279;28;21392;-93
2022/09/20 13:59:32;;;;;;;3.10;1.50;;;20.60;50.10;;;;;;5039133;28;21410;-93